createdAt,value
2022-11-19T00:01:28.725Z,5.47
2022-11-19T00:03:55.734Z,6.32
2022-11-19T00:06:25.626Z,5.03
2022-11-19T00:08:52.813Z,10.60
2022-11-19T00:11:42.464Z,6.55
2022-11-19T00:14:12.308Z,7.28
2022-11-19T00:16:39.107Z,6.57
2022-11-19T00:19:05.803Z,6.25
2022-11-19T00:21:33.017Z,7.35
2022-11-19T00:23:59.783Z,7.82
2022-11-19T00:26:26.407Z,7.20
2022-11-19T00:28:54.400Z,7.03
2022-11-19T00:31:21.306Z,7.38
2022-11-19T00:33:50.621Z,6.53
2022-11-19T00:36:17.736Z,8.18
2022-11-19T00:38:44.519Z,7.50
2022-11-19T00:41:11.888Z,7.43
2022-11-19T00:43:50.328Z,7.55
2022-11-19T00:46:22.783Z,8.60
2022-11-19T00:48:51.944Z,7.00
2022-11-19T00:51:20.658Z,7.65
2022-11-19T00:53:47.507Z,6.97
2022-11-19T00:56:17.760Z,8.45
2022-11-19T00:58:45.604Z,7.72
2022-11-19T01:01:13.694Z,9.15
2022-11-19T01:03:41.309Z,8.00
2022-11-19T01:06:19.661Z,8.75
2022-11-19T01:08:48.595Z,10.25
2022-11-19T01:11:25.949Z,11.35
2022-11-19T01:13:53.647Z,10.43
2022-11-19T01:16:33.888Z,11.25
2022-11-19T01:19:01.107Z,12.80
2022-11-19T01:21:31.655Z,12.55
2022-11-19T01:23:58.940Z,14.30
2022-11-19T01:26:26.860Z,13.55
2022-11-19T01:28:54.804Z,13.63
2022-11-19T01:31:27.646Z,14.27
2022-11-19T01:33:54.865Z,13.85
2022-11-19T01:36:27.896Z,14.10
2022-11-19T01:38:54.945Z,13.00
2022-11-19T01:41:28.504Z,12.48
2022-11-19T01:43:59.180Z,14.02
2022-11-19T01:46:32.143Z,13.13
2022-11-19T01:49:14.236Z,13.57
2022-11-19T01:51:49.805Z,15.55
2022-11-19T01:54:39.254Z,15.77
2022-11-19T01:57:12.864Z,14.95
2022-11-19T01:59:41.435Z,13.95
2022-11-19T02:02:08.130Z,16.63
2022-11-19T02:04:35.809Z,15.85
2022-11-19T02:07:02.931Z,14.38
2022-11-19T02:09:30.453Z,15.25
2022-11-19T02:12:50.126Z,14.00
2022-11-19T02:15:45.277Z,16.50
2022-11-19T02:18:34.424Z,14.80
2022-11-19T02:21:32.256Z,17.00
2022-11-19T02:24:40.346Z,17.73
2022-11-19T02:27:40.082Z,18.48
2022-11-19T02:30:11.606Z,15.60
2022-11-19T02:32:56.888Z,17.40
2022-11-19T02:35:58.777Z,17.83
2022-11-19T02:38:42.499Z,19.20
2022-11-19T02:41:33.818Z,19.05
2022-11-19T02:44:43.296Z,19.83
2022-11-19T02:47:33.394Z,17.98
2022-11-19T02:50:16.536Z,18.00
2022-11-19T02:52:44.808Z,21.55
2022-11-19T02:55:17.744Z,21.15
2022-11-19T02:57:52.694Z,20.77
2022-11-19T03:00:38.029Z,22.05
2022-11-19T03:03:38.977Z,24.45
2022-11-19T03:06:26.393Z,19.70
2022-11-19T03:08:53.223Z,17.38
2022-11-19T03:11:23.397Z,18.05
2022-11-19T03:14:26.896Z,18.17
2022-11-19T03:17:07.290Z,17.30
2022-11-19T03:19:46.423Z,18.17
2022-11-19T03:22:24.926Z,17.63
2022-11-19T03:25:07.021Z,17.23
2022-11-19T03:27:49.193Z,18.70
2022-11-19T03:30:18.399Z,17.35
2022-11-19T03:32:51.556Z,19.27
2022-11-19T03:35:24.765Z,20.92
2022-11-19T03:37:56.128Z,19.60
2022-11-19T03:40:24.674Z,21.23
2022-11-19T03:43:05.244Z,20.08
2022-11-19T03:45:39.980Z,19.85
2022-11-19T03:48:07.456Z,19.73
2022-11-19T03:50:58.271Z,20.52
2022-11-19T03:53:25.792Z,19.05
2022-11-19T03:56:02.300Z,19.65
2022-11-19T03:58:29.766Z,19.95
2022-11-19T04:00:56.371Z,19.80
2022-11-19T04:03:23.006Z,18.45
2022-11-19T04:05:49.601Z,18.08
2022-11-19T04:08:16.166Z,19.98
2022-11-19T04:10:42.709Z,18.77
2022-11-19T04:13:11.810Z,19.63
2022-11-19T04:15:38.368Z,20.77
2022-11-19T04:18:05.043Z,20.55
2022-11-19T04:20:31.598Z,22.15
2022-11-19T04:22:58.177Z,22.67
2022-11-19T04:25:24.865Z,21.70
2022-11-19T04:27:51.560Z,24.15
2022-11-19T04:30:20.841Z,20.83
2022-11-19T04:32:47.408Z,21.85
2022-11-19T04:35:14.105Z,22.48
2022-11-19T04:37:40.693Z,20.33
2022-11-19T04:40:08.294Z,20.27
2022-11-19T04:42:34.849Z,22.58
2022-11-19T04:45:01.496Z,21.58
2022-11-19T04:47:28.085Z,20.58
2022-11-19T04:49:54.642Z,18.63
2022-11-19T04:52:21.224Z,19.08
2022-11-19T04:54:47.864Z,18.38
2022-11-19T04:57:14.748Z,18.17
2022-11-19T04:59:41.369Z,19.40
2022-11-19T05:02:08.857Z,18.67
2022-11-19T05:04:35.412Z,17.67
2022-11-19T05:07:02.286Z,19.50
2022-11-19T05:09:28.865Z,19.48
2022-11-19T05:11:55.486Z,20.30
2022-11-19T05:14:23.762Z,17.90
2022-11-19T05:16:53.884Z,18.05
2022-11-19T05:19:20.912Z,19.10
2022-11-19T05:21:47.709Z,18.65
2022-11-19T05:24:14.278Z,18.50
2022-11-19T05:26:40.944Z,18.10
2022-11-19T05:29:07.490Z,19.02
2022-11-19T05:31:34.117Z,16.02
2022-11-19T05:34:00.664Z,16.38
2022-11-19T05:36:27.221Z,14.38
2022-11-19T05:38:53.825Z,16.63
2022-11-19T05:41:20.456Z,16.77
2022-11-19T05:43:47.025Z,16.00
2022-11-19T05:46:13.586Z,17.52
2022-11-19T05:48:40.289Z,15.13
2022-11-19T05:51:06.890Z,13.85
2022-11-19T05:53:33.508Z,15.35
2022-11-19T05:56:00.101Z,15.77
2022-11-19T05:58:26.693Z,15.45
2022-11-19T06:00:56.381Z,15.68
2022-11-19T06:03:23.050Z,16.45
2022-11-19T06:05:49.669Z,16.33
2022-11-19T06:08:16.293Z,16.05
2022-11-19T06:10:42.892Z,14.93
2022-11-19T06:13:09.469Z,16.10
2022-11-19T06:15:36.054Z,16.95
2022-11-19T06:18:02.869Z,15.73
2022-11-19T06:20:30.084Z,14.80
2022-11-19T06:22:57.757Z,15.68
2022-11-19T06:25:24.384Z,14.63
2022-11-19T06:27:50.961Z,15.88
2022-11-19T06:30:17.625Z,20.73
2022-11-19T06:32:44.271Z,25.33
2022-11-19T06:35:14.145Z,24.80
2022-11-19T06:37:41.001Z,21.85
2022-11-19T06:40:08.535Z,21.25
2022-11-19T06:42:37.989Z,24.70
2022-11-19T06:45:13.621Z,16.38
2022-11-19T06:47:41.470Z,16.40
2022-11-19T06:50:10.466Z,14.13
2022-11-19T06:52:37.237Z,15.93
2022-11-19T06:55:04.676Z,16.60
2022-11-19T06:57:31.261Z,16.90
2022-11-19T07:00:00.868Z,14.50
2022-11-19T07:02:27.572Z,11.80
2022-11-19T07:04:54.159Z,13.52
2022-11-19T07:07:21.072Z,15.35
2022-11-19T07:09:47.698Z,16.38
2022-11-19T07:12:14.298Z,19.55
2022-11-19T07:14:40.877Z,19.20
2022-11-19T07:17:07.506Z,18.85
2022-11-19T07:19:34.103Z,25.50
2022-11-19T07:22:00.834Z,20.20
2022-11-19T07:24:27.403Z,19.30
2022-11-19T07:26:55.868Z,18.33
2022-11-19T07:29:22.799Z,20.42
2022-11-19T07:31:50.375Z,25.55
2022-11-19T07:34:17.660Z,22.88
2022-11-19T07:36:45.308Z,23.98
2022-11-19T07:39:12.381Z,25.88
2022-11-19T07:41:58.886Z,26.25
2022-11-19T07:44:25.509Z,26.85
2022-11-19T07:46:52.600Z,31.15
2022-11-19T07:49:20.403Z,26.38
2022-11-19T07:51:47.657Z,24.48
2022-11-19T07:54:14.784Z,23.27
2022-11-19T07:56:42.084Z,24.42
2022-11-19T07:59:09.036Z,23.00
2022-11-19T08:01:36.100Z,21.13
2022-11-19T08:04:04.201Z,22.35
2022-11-19T08:06:33.213Z,25.95
2022-11-19T08:09:00.394Z,24.40
2022-11-19T08:11:26.971Z,24.58
2022-11-19T08:13:54.080Z,25.05
2022-11-19T08:16:40.408Z,20.92
2022-11-19T08:19:11.280Z,23.58
2022-11-19T08:21:42.333Z,23.85
2022-11-19T08:24:10.109Z,24.65
2022-11-19T08:26:37.521Z,28.33
2022-11-19T08:29:05.114Z,24.92
2022-11-19T08:31:31.722Z,24.48
2022-11-19T08:33:58.281Z,23.33
2022-11-19T08:36:24.871Z,25.08
2022-11-19T08:38:51.467Z,27.58
2022-11-19T08:41:36.778Z,24.85
2022-11-19T08:44:03.655Z,22.08
2022-11-19T08:46:30.287Z,23.75
2022-11-19T08:48:58.696Z,24.15
2022-11-19T08:51:25.462Z,22.17
2022-11-19T08:53:55.123Z,23.35
2022-11-19T08:56:22.198Z,23.30
2022-11-19T08:58:49.585Z,23.10
2022-11-19T09:01:17.718Z,24.15
2022-11-19T09:03:44.578Z,21.40
2022-11-19T09:06:11.838Z,22.38
2022-11-19T09:08:42.326Z,20.60
2022-11-19T09:11:13.613Z,22.05
2022-11-19T09:13:40.563Z,23.77
2022-11-19T09:16:08.515Z,22.10
2022-11-19T09:18:38.929Z,20.85
2022-11-19T09:21:08.326Z,20.48
2022-11-19T09:23:35.357Z,24.02
2022-11-19T09:26:14.708Z,20.30
2022-11-19T09:28:42.372Z,22.15
2022-11-19T09:31:18.496Z,20.50
2022-11-19T09:33:49.092Z,23.20
2022-11-19T09:36:17.573Z,27.33
2022-11-19T09:38:45.493Z,23.77
2022-11-19T09:41:36.434Z,23.75
2022-11-19T09:44:28.370Z,23.08
2022-11-19T09:47:00.713Z,20.58
2022-11-19T09:49:38.741Z,21.42
2022-11-19T09:52:15.266Z,22.90
2022-11-19T09:54:49.460Z,20.02
2022-11-19T09:57:31.991Z,23.05
2022-11-19T10:00:01.829Z,25.40
2022-11-19T10:02:29.587Z,23.83
2022-11-19T10:04:56.551Z,21.88
2022-11-19T10:07:58.329Z,22.88
2022-11-19T10:10:41.450Z,21.10
2022-11-19T10:13:51.833Z,21.95
2022-11-19T10:17:19.236Z,21.75
2022-11-19T10:20:07.089Z,22.38
2022-11-19T10:22:57.807Z,21.55
2022-11-19T10:25:36.367Z,21.92
2022-11-19T10:28:15.237Z,19.88
2022-11-19T10:30:54.430Z,20.70
2022-11-19T10:33:32.762Z,19.23
2022-11-19T10:36:10.785Z,19.67
2022-11-19T10:39:02.772Z,17.60
2022-11-19T10:41:45.401Z,20.17
2022-11-19T10:44:42.311Z,20.20
2022-11-19T10:47:37.824Z,23.52
2022-11-19T10:50:10.989Z,20.02
2022-11-19T10:52:42.709Z,20.73
2022-11-19T10:55:32.311Z,18.08
2022-11-19T10:58:11.026Z,19.60
2022-11-19T11:00:40.003Z,19.92
2022-11-19T11:03:27.377Z,16.40
2022-11-19T11:06:06.097Z,20.08
2022-11-19T11:08:33.933Z,20.90
2022-11-19T11:11:01.382Z,19.48
2022-11-19T11:13:52.480Z,19.50
2022-11-19T11:16:46.554Z,20.02
2022-11-19T11:19:18.314Z,20.83
2022-11-19T11:21:46.898Z,18.60
2022-11-19T11:24:14.419Z,19.42
2022-11-19T11:26:41.396Z,19.30
2022-11-19T11:29:26.422Z,21.88
2022-11-19T11:31:53.749Z,19.33
2022-11-19T11:34:43.715Z,22.77
2022-11-19T11:37:18.679Z,20.95
2022-11-19T11:39:54.973Z,21.23
2022-11-19T11:42:26.341Z,19.15
2022-11-19T11:44:57.450Z,22.67
2022-11-19T11:47:33.509Z,19.75
2022-11-19T11:50:24.246Z,18.75
2022-11-19T11:52:53.390Z,19.98
2022-11-19T11:55:22.974Z,19.05
2022-11-19T11:57:57.808Z,19.65
2022-11-19T12:00:42.943Z,16.58
2022-11-19T12:03:16.077Z,19.02
2022-11-19T12:05:59.910Z,17.90
2022-11-19T12:08:54.504Z,21.65
2022-11-19T12:11:57.202Z,19.08
2022-11-19T12:14:51.869Z,22.00
2022-11-19T12:17:50.012Z,17.92
2022-11-19T12:20:44.798Z,16.05
2022-11-19T12:23:20.653Z,17.73
2022-11-19T12:26:19.152Z,16.63
2022-11-19T12:29:10.031Z,17.23
2022-11-19T12:32:07.341Z,17.80
2022-11-19T12:35:14.647Z,20.13
2022-11-19T12:38:29.321Z,17.05
2022-11-19T12:41:46.986Z,17.08
2022-11-19T12:44:47.772Z,17.63
2022-11-19T12:47:44.560Z,24.77
2022-11-19T12:50:18.685Z,18.42
2022-11-19T12:53:06.996Z,17.95
2022-11-19T12:56:08.445Z,18.55
2022-11-19T12:59:10.941Z,18.13
2022-11-19T13:01:43.200Z,17.05
2022-11-19T13:04:18.586Z,18.73
2022-11-19T13:06:58.633Z,22.55
2022-11-19T13:09:41.059Z,19.23
2022-11-19T13:12:16.283Z,24.40
2022-11-19T13:14:55.284Z,22.55
2022-11-19T13:17:31.445Z,20.52
2022-11-19T13:20:04.828Z,19.13
2022-11-19T13:22:43.453Z,18.40
2022-11-19T13:25:24.225Z,19.10
2022-11-19T13:27:54.866Z,17.95
2022-11-19T13:30:26.622Z,31.20
2022-11-19T13:33:18.713Z,31.00
2022-11-19T13:36:05.218Z,37.92
2022-11-19T13:38:52.471Z,35.55
2022-11-19T13:41:32.073Z,33.33
2022-11-19T13:44:17.939Z,20.02
2022-11-19T13:46:52.727Z,17.88
2022-11-19T13:49:27.731Z,21.08
2022-11-19T13:52:06.882Z,17.00
2022-11-19T13:54:37.798Z,19.83
2022-11-19T13:57:07.385Z,17.13
2022-11-19T13:59:46.609Z,19.08
2022-11-19T14:03:17.146Z,16.00
2022-11-19T14:06:09.777Z,18.15
2022-11-19T14:09:03.035Z,16.45
2022-11-19T14:11:49.982Z,16.50
2022-11-19T14:15:06.009Z,18.00
2022-11-19T14:18:16.705Z,17.10
2022-11-19T14:21:03.955Z,15.27
2022-11-19T14:24:02.320Z,13.32
2022-11-19T14:26:40.696Z,17.20
2022-11-19T14:29:27.219Z,14.82
2022-11-19T14:32:03.019Z,14.35
2022-11-19T14:35:09.455Z,15.05
2022-11-19T14:37:51.862Z,15.77
2022-11-19T14:40:28.714Z,25.48
2022-11-19T14:43:19.674Z,15.10
2022-11-19T14:46:09.991Z,15.93
2022-11-19T14:48:40.065Z,18.33
2022-11-19T14:51:14.579Z,16.00
2022-11-19T14:54:03.326Z,32.60
2022-11-19T14:56:31.886Z,32.05
2022-11-19T14:59:14.266Z,27.20
2022-11-19T15:01:59.938Z,24.45
2022-11-19T15:05:12.667Z,23.42
2022-11-19T15:07:43.767Z,17.35
2022-11-19T15:10:10.353Z,18.58
2022-11-19T15:12:51.342Z,21.55
2022-11-19T15:15:20.925Z,20.70
2022-11-19T15:18:08.129Z,18.08
2022-11-19T15:20:57.307Z,16.83
2022-11-19T15:24:16.321Z,17.15
2022-11-19T15:26:51.776Z,16.45
2022-11-19T15:29:48.257Z,19.65
2022-11-19T15:32:55.403Z,15.90
2022-11-19T15:35:56.256Z,18.30
2022-11-19T15:38:22.742Z,15.27
2022-11-19T15:40:56.787Z,18.42
2022-11-19T15:43:53.852Z,16.52
2022-11-19T15:46:44.699Z,15.48
2022-11-19T15:49:24.416Z,13.10
2022-11-19T15:52:02.829Z,14.70
2022-11-19T15:54:32.519Z,15.00
2022-11-19T15:57:22.039Z,15.18
2022-11-19T16:00:00.902Z,17.92
2022-11-19T16:02:41.532Z,16.23
2022-11-19T16:05:21.691Z,16.23
2022-11-19T16:08:03.150Z,17.17
2022-11-19T16:10:34.052Z,14.85
2022-11-19T16:13:39.599Z,21.33
2022-11-19T16:16:41.773Z,16.13
2022-11-19T16:19:08.332Z,17.42
2022-11-19T16:21:38.595Z,22.55
2022-11-19T16:24:31.475Z,21.23
2022-11-19T16:26:59.440Z,22.23
2022-11-19T16:29:26.948Z,17.65
2022-11-19T16:31:57.851Z,17.33
2022-11-19T16:34:29.110Z,16.15
2022-11-19T16:36:56.087Z,15.25
2022-11-19T16:39:27.879Z,14.85
2022-11-19T16:42:16.138Z,14.77
2022-11-19T16:44:56.682Z,14.32
2022-11-19T16:47:31.542Z,20.08
2022-11-19T16:50:25.132Z,16.13
2022-11-19T16:52:51.720Z,19.38
2022-11-19T16:55:18.218Z,18.92
2022-11-19T16:57:50.641Z,18.65
2022-11-19T17:00:21.859Z,29.77
2022-11-19T17:02:50.695Z,28.27
2022-11-19T17:05:22.026Z,19.02
2022-11-19T17:07:52.689Z,18.55
2022-11-19T17:10:23.052Z,16.73
2022-11-19T17:12:52.437Z,19.75
2022-11-19T17:15:44.368Z,19.83
2022-11-19T17:18:20.074Z,12.82
2022-11-19T17:21:02.714Z,17.58
2022-11-19T17:23:37.019Z,15.00
2022-11-19T17:26:10.578Z,16.63
2022-11-19T17:28:45.418Z,15.68
2022-11-19T17:31:23.181Z,18.38
2022-11-19T17:34:12.216Z,19.20
2022-11-19T17:36:39.770Z,21.08
2022-11-19T17:39:11.647Z,20.85
2022-11-19T17:41:58.446Z,18.08
2022-11-19T17:44:40.041Z,24.67
2022-11-19T17:47:21.706Z,25.92
2022-11-19T17:49:50.094Z,22.35
2022-11-19T17:52:26.250Z,16.08
2022-11-19T17:54:57.195Z,15.80
2022-11-19T17:57:24.014Z,13.73
2022-11-19T17:59:50.586Z,15.70
2022-11-19T18:02:19.939Z,15.88
2022-11-19T18:04:47.727Z,15.27
2022-11-19T18:07:14.959Z,15.23
2022-11-19T18:09:41.867Z,14.05
2022-11-19T18:12:18.578Z,13.90
2022-11-19T18:14:45.903Z,16.77
2022-11-19T18:17:14.442Z,13.48
2022-11-19T18:19:41.810Z,17.38
2022-11-19T18:22:18.096Z,14.75
2022-11-19T18:24:47.981Z,14.68
2022-11-19T18:27:15.658Z,15.68
2022-11-19T18:29:42.252Z,16.73
2022-11-19T18:32:12.063Z,16.75
2022-11-19T18:34:40.687Z,14.90
2022-11-19T18:37:07.247Z,14.82
2022-11-19T18:39:33.840Z,18.23
2022-11-19T18:42:00.499Z,17.48
2022-11-19T18:44:33.332Z,31.13
2022-11-19T18:47:08.127Z,21.92
2022-11-19T18:49:34.930Z,20.08
2022-11-19T18:52:07.753Z,17.30
2022-11-19T18:54:34.584Z,16.90
2022-11-19T18:57:01.394Z,15.85
2022-11-19T18:59:29.735Z,18.50
2022-11-19T19:01:56.802Z,18.05
2022-11-19T19:04:24.029Z,16.40
2022-11-19T19:06:51.019Z,15.93
2022-11-19T19:09:21.343Z,16.88
2022-11-19T19:12:13.814Z,15.30
2022-11-19T19:14:45.646Z,21.83
2022-11-19T19:17:13.158Z,16.58
2022-11-19T19:19:40.138Z,15.38
2022-11-19T19:22:07.649Z,13.95
2022-11-19T19:24:34.559Z,14.77
2022-11-19T19:27:02.042Z,15.65
2022-11-19T19:29:28.895Z,14.50
2022-11-19T19:31:55.579Z,14.68
2022-11-19T19:34:22.311Z,16.73
2022-11-19T19:36:52.973Z,16.17
2022-11-19T19:39:20.008Z,14.75
2022-11-19T19:41:49.589Z,13.02
2022-11-19T19:44:16.296Z,13.55
2022-11-19T19:46:43.002Z,15.23
2022-11-19T19:49:09.556Z,15.18
2022-11-19T19:51:36.338Z,15.55
2022-11-19T19:54:03.101Z,15.45
2022-11-19T19:56:32.047Z,12.93
2022-11-19T19:59:01.545Z,15.13
2022-11-19T20:01:31.967Z,12.73
2022-11-19T20:04:07.826Z,13.55
2022-11-19T20:06:37.973Z,14.90
2022-11-19T20:09:08.859Z,13.43
2022-11-19T20:11:36.456Z,12.52
2022-11-19T20:14:03.144Z,13.77
2022-11-19T20:16:32.441Z,15.23
2022-11-19T20:19:00.385Z,12.95
2022-11-19T20:21:35.968Z,13.93
2022-11-19T20:24:08.727Z,13.35
2022-11-19T20:26:39.824Z,14.48
2022-11-19T20:29:06.946Z,16.40
2022-11-19T20:31:34.879Z,14.65
2022-11-19T20:34:04.502Z,21.25
2022-11-19T20:36:34.898Z,31.55
2022-11-19T20:39:01.988Z,23.80
2022-11-19T20:41:47.607Z,17.80
2022-11-19T20:44:25.489Z,19.38
2022-11-19T20:46:58.463Z,16.45
2022-11-19T20:49:28.468Z,16.13
2022-11-19T20:51:56.115Z,17.40
2022-11-19T20:54:23.975Z,19.58
2022-11-19T20:56:52.576Z,18.10
2022-11-19T20:59:20.293Z,18.35
2022-11-19T21:01:49.718Z,15.90
2022-11-19T21:04:16.709Z,22.15
2022-11-19T21:06:43.380Z,19.75
2022-11-19T21:09:10.017Z,18.73
2022-11-19T21:11:36.806Z,20.70
2022-11-19T21:14:04.053Z,21.17
2022-11-19T21:16:31.533Z,22.45
2022-11-19T21:18:58.397Z,15.10
2022-11-19T21:21:25.465Z,14.15
2022-11-19T21:23:53.856Z,16.45
2022-11-19T21:26:26.353Z,41.85
2022-11-19T21:28:56.054Z,19.25
2022-11-19T21:31:37.828Z,13.98
2022-11-19T21:34:07.136Z,17.00
2022-11-19T21:36:33.989Z,15.20
2022-11-19T21:39:00.780Z,15.68
2022-11-19T21:41:27.557Z,13.73
2022-11-19T21:43:54.147Z,17.17
2022-11-19T21:46:20.765Z,15.30
2022-11-19T21:48:48.552Z,15.70
2022-11-19T21:51:17.910Z,15.70
2022-11-19T21:53:46.783Z,15.88
2022-11-19T21:56:13.397Z,25.17
2022-11-19T21:58:39.984Z,24.33
2022-11-19T22:01:06.948Z,30.60
2022-11-19T22:03:35.607Z,37.42
2022-11-19T22:06:08.357Z,18.40
2022-11-19T22:08:39.993Z,15.98
2022-11-19T22:11:27.185Z,15.20
2022-11-19T22:13:55.033Z,14.40
2022-11-19T22:16:21.955Z,16.13
2022-11-19T22:18:48.699Z,14.02
2022-11-19T22:21:15.937Z,15.00
2022-11-19T22:23:42.560Z,23.80
2022-11-19T22:26:11.622Z,28.58
2022-11-19T22:28:38.729Z,22.98
2022-11-19T22:31:05.810Z,19.60
2022-11-19T22:33:35.397Z,17.70
2022-11-19T22:36:09.478Z,17.55
2022-11-19T22:38:38.419Z,16.25
2022-11-19T22:41:09.467Z,16.73
2022-11-19T22:43:38.369Z,19.70
2022-11-19T22:46:06.790Z,15.38
2022-11-19T22:48:34.042Z,18.85
2022-11-19T22:51:07.872Z,15.73
2022-11-19T22:53:37.545Z,17.33
2022-11-19T22:56:07.591Z,16.63
2022-11-19T22:58:34.814Z,17.88
2022-11-19T23:01:01.500Z,18.77
2022-11-19T23:03:28.533Z,15.90
2022-11-19T23:05:56.426Z,14.40
2022-11-19T23:08:23.177Z,16.02
2022-11-19T23:10:58.535Z,16.60
2022-11-19T23:13:32.490Z,14.52
2022-11-19T23:16:07.367Z,15.88
2022-11-19T23:18:41.440Z,13.65
2022-11-19T23:21:15.322Z,15.10
2022-11-19T23:23:43.247Z,15.75
2022-11-19T23:26:13.654Z,15.70
2022-11-19T23:28:40.316Z,15.48
2022-11-19T23:31:10.885Z,14.93
2022-11-19T23:33:37.525Z,16.77
2022-11-19T23:36:26.839Z,16.30
2022-11-19T23:38:53.967Z,15.60
2022-11-19T23:41:22.001Z,16.50
2022-11-19T23:43:49.719Z,16.10
2022-11-19T23:46:20.771Z,15.70
2022-11-19T23:48:48.941Z,16.58
2022-11-19T23:51:22.482Z,14.88
2022-11-19T23:53:49.563Z,14.15
2022-11-19T23:56:18.022Z,15.82
2022-11-19T23:58:44.911Z,16.55
